createdAt,value
2022-08-24T00:00:18.789Z,95.45
2022-08-24T00:01:20.835Z,95.43
2022-08-24T00:02:23.143Z,95.61
2022-08-24T00:03:27.097Z,95.53
2022-08-24T00:04:36.300Z,95.49
2022-08-24T00:05:38.053Z,95.46
2022-08-24T00:06:39.859Z,95.32
2022-08-24T00:07:41.888Z,95.01
2022-08-24T00:08:43.776Z,95.38
2022-08-24T00:09:45.923Z,95.39
2022-08-24T00:10:52.621Z,95.73
2022-08-24T00:11:54.402Z,95.76
2022-08-24T00:12:56.207Z,95.83
2022-08-24T00:13:58.218Z,96.02
2022-08-24T00:15:00.404Z,95.95
2022-08-24T00:16:02.559Z,95.59
2022-08-24T00:17:04.495Z,95.80
2022-08-24T00:18:06.300Z,95.92
2022-08-24T00:19:08.328Z,95.60
2022-08-24T00:20:11.689Z,95.84
2022-08-24T00:21:14.363Z,95.82
2022-08-24T00:22:16.133Z,95.79
2022-08-24T00:23:18.050Z,95.71
2022-08-24T00:24:20.143Z,95.75
2022-08-24T00:25:22.376Z,95.80
2022-08-24T00:26:28.573Z,95.72
2022-08-24T00:27:31.293Z,95.88
2022-08-24T00:28:33.418Z,95.90
2022-08-24T00:29:35.671Z,96.34
2022-08-24T00:30:37.497Z,96.29
2022-08-24T00:31:39.764Z,96.36
2022-08-24T00:32:42.845Z,96.61
2022-08-24T00:33:44.698Z,96.45
2022-08-24T00:34:54.071Z,96.64
2022-08-24T00:36:01.054Z,96.33
2022-08-24T00:37:02.895Z,96.17
2022-08-24T00:38:04.890Z,96.08
2022-08-24T00:39:08.260Z,96.13
2022-08-24T00:40:16.059Z,96.31
2022-08-24T00:41:18.759Z,96.24
2022-08-24T00:42:20.599Z,96.21
2022-08-24T00:43:24.442Z,95.99
2022-08-24T00:44:26.646Z,96.01
2022-08-24T00:45:28.574Z,96.21
2022-08-24T00:46:48.763Z,95.98
2022-08-24T00:47:54.365Z,95.87
2022-08-24T00:49:02.284Z,95.80
2022-08-24T00:50:06.483Z,96.03
2022-08-24T00:51:21.046Z,96.16
2022-08-24T00:52:38.897Z,96.17
2022-08-24T00:53:43.439Z,96.14
2022-08-24T00:54:47.852Z,96.31
2022-08-24T00:55:52.261Z,96.05
2022-08-24T00:56:56.835Z,96.09
2022-08-24T00:58:02.349Z,95.90
2022-08-24T00:59:11.540Z,95.95
2022-08-24T01:00:25.156Z,95.87
2022-08-24T01:01:27.842Z,95.93
2022-08-24T01:02:33.150Z,95.89
2022-08-24T01:03:36.369Z,95.37
2022-08-24T01:04:41.366Z,95.49
2022-08-24T01:05:43.220Z,95.53
2022-08-24T01:06:50.220Z,95.37
2022-08-24T01:07:52.083Z,95.59
2022-08-24T01:08:56.820Z,95.34
2022-08-24T01:10:02.374Z,95.38
2022-08-24T01:11:07.657Z,95.05
2022-08-24T01:12:10.311Z,95.32
2022-08-24T01:13:15.950Z,95.21
2022-08-24T01:14:19.317Z,95.41
2022-08-24T01:15:22.938Z,95.53
2022-08-24T01:16:43.423Z,95.54
2022-08-24T01:18:03.929Z,95.32
2022-08-24T01:19:15.590Z,95.38
2022-08-24T01:20:17.766Z,95.27
2022-08-24T01:21:38.606Z,95.19
2022-08-24T01:22:40.349Z,95.31
2022-08-24T01:23:44.263Z,95.49
2022-08-24T01:24:46.406Z,95.03
2022-08-24T01:25:50.046Z,95.17
2022-08-24T01:26:52.660Z,95.04
2022-08-24T01:27:56.199Z,95.15
2022-08-24T01:29:02.747Z,95.09
2022-08-24T01:30:09.267Z,94.89
2022-08-24T01:31:12.350Z,94.72
2022-08-24T01:32:14.677Z,95.04
2022-08-24T01:33:30.686Z,95.05
2022-08-24T01:34:32.493Z,94.91
2022-08-24T01:35:35.660Z,94.95
2022-08-24T01:36:39.492Z,94.90
2022-08-24T01:37:41.457Z,95.19
2022-08-24T01:38:43.408Z,95.34
2022-08-24T01:39:46.387Z,95.35
2022-08-24T01:40:51.227Z,95.39
2022-08-24T01:41:53.368Z,95.39
2022-08-24T01:42:55.226Z,95.51
2022-08-24T01:43:58.791Z,95.33
2022-08-24T01:45:00.926Z,95.48
2022-08-24T01:46:02.856Z,95.57
2022-08-24T01:47:06.666Z,95.60
2022-08-24T01:48:09.525Z,95.53
2022-08-24T01:49:11.737Z,95.62
2022-08-24T01:50:13.679Z,95.63
2022-08-24T01:51:15.635Z,95.32
2022-08-24T01:52:21.835Z,95.54
2022-08-24T01:53:23.788Z,95.46
2022-08-24T01:54:26.253Z,95.54
2022-08-24T01:55:28.883Z,95.52
2022-08-24T01:56:31.569Z,95.57
2022-08-24T01:57:35.068Z,95.61
2022-08-24T01:58:36.853Z,95.46
2022-08-24T01:59:39.172Z,95.72
2022-08-24T02:00:41.226Z,95.94
2022-08-24T02:01:46.166Z,95.63
2022-08-24T02:02:48.849Z,95.60
2022-08-24T02:03:51.965Z,95.71
2022-08-24T02:04:54.117Z,95.92
2022-08-24T02:05:55.896Z,95.63
2022-08-24T02:06:57.733Z,95.93
2022-08-24T02:07:59.570Z,95.52
2022-08-24T02:09:01.438Z,95.99
2022-08-24T02:10:03.908Z,96.01
2022-08-24T02:11:09.421Z,96.00
2022-08-24T02:12:11.731Z,96.15
2022-08-24T02:13:13.543Z,95.89
2022-08-24T02:14:17.066Z,95.62
2022-08-24T02:15:18.906Z,95.71
2022-08-24T02:16:21.044Z,95.72
2022-08-24T02:17:22.917Z,95.55
2022-08-24T02:18:24.994Z,95.33
2022-08-24T02:19:27.756Z,95.28
2022-08-24T02:20:30.633Z,95.70
2022-08-24T02:21:32.628Z,95.41
2022-08-24T02:22:34.570Z,95.30
2022-08-24T02:23:37.218Z,95.49
2022-08-24T02:24:39.187Z,95.69
2022-08-24T02:25:40.983Z,95.53
2022-08-24T02:26:42.904Z,95.43
2022-08-24T02:27:44.796Z,95.70
2022-08-24T02:28:46.708Z,95.58
2022-08-24T02:29:48.542Z,95.50
2022-08-24T02:30:50.407Z,95.82
2022-08-24T02:31:52.437Z,95.54
2022-08-24T02:32:54.343Z,95.59
2022-08-24T02:33:56.176Z,95.71
2022-08-24T02:34:57.961Z,95.66
2022-08-24T02:35:59.756Z,95.60
2022-08-24T02:37:01.546Z,95.53
2022-08-24T02:38:03.496Z,95.70
2022-08-24T02:39:06.323Z,95.75
2022-08-24T02:40:08.897Z,95.74
2022-08-24T02:41:11.553Z,95.38
2022-08-24T02:42:15.889Z,95.68
2022-08-24T02:43:17.773Z,95.74
2022-08-24T02:44:20.207Z,95.50
2022-08-24T02:45:22.240Z,95.67
2022-08-24T02:46:25.855Z,96.02
2022-08-24T02:47:33.623Z,96.06
2022-08-24T02:48:40.478Z,95.80
2022-08-24T02:49:42.449Z,96.05
2022-08-24T02:50:46.028Z,96.08
2022-08-24T02:51:48.527Z,96.40
2022-08-24T02:52:50.602Z,96.36
2022-08-24T02:53:52.923Z,96.32
2022-08-24T02:54:54.777Z,96.16
2022-08-24T02:55:56.569Z,96.27
2022-08-24T02:56:58.364Z,96.31
2022-08-24T02:58:00.122Z,96.21
2022-08-24T02:59:02.090Z,95.90
2022-08-24T03:00:09.906Z,96.11
2022-08-24T03:01:13.720Z,96.07
2022-08-24T03:02:27.203Z,96.25
2022-08-24T03:03:29.006Z,96.32
2022-08-24T03:04:31.599Z,96.03
2022-08-24T03:05:34.259Z,96.25
2022-08-24T03:06:36.227Z,96.03
2022-08-24T03:07:38.088Z,96.26
2022-08-24T03:08:39.917Z,96.20
2022-08-24T03:09:41.772Z,96.16
2022-08-24T03:10:43.680Z,96.13
2022-08-24T03:11:45.811Z,96.16
2022-08-24T03:12:48.100Z,95.90
2022-08-24T03:13:49.904Z,96.26
2022-08-24T03:14:51.774Z,96.11
2022-08-24T03:15:54.345Z,96.06
2022-08-24T03:16:56.185Z,96.08
2022-08-24T03:17:58.105Z,95.95
2022-08-24T03:19:00.171Z,95.71
2022-08-24T03:20:02.407Z,95.89
2022-08-24T03:21:04.722Z,96.09
2022-08-24T03:22:06.511Z,96.09
2022-08-24T03:23:08.323Z,96.10
2022-08-24T03:24:10.159Z,96.43
2022-08-24T03:25:12.654Z,96.63
2022-08-24T03:26:14.617Z,96.62
2022-08-24T03:27:16.427Z,96.84
2022-08-24T03:28:19.657Z,96.81
2022-08-24T03:29:26.378Z,96.72
2022-08-24T03:30:28.417Z,96.85
2022-08-24T03:31:30.306Z,96.88
2022-08-24T03:32:32.715Z,96.82
2022-08-24T03:33:34.591Z,96.96
2022-08-24T03:34:36.606Z,96.90
2022-08-24T03:35:38.556Z,96.89
2022-08-24T03:36:40.992Z,97.07
2022-08-24T03:37:42.801Z,97.17
2022-08-24T03:38:44.680Z,97.02
2022-08-24T03:39:47.943Z,97.02
2022-08-24T03:40:50.126Z,96.70
2022-08-24T03:41:51.985Z,96.73
2022-08-24T03:42:54.071Z,96.79
2022-08-24T03:43:57.082Z,96.80
2022-08-24T03:44:58.914Z,96.82
2022-08-24T03:46:03.082Z,96.83
2022-08-24T03:47:05.092Z,96.34
2022-08-24T03:48:07.006Z,96.59
2022-08-24T03:49:10.203Z,96.24
2022-08-24T03:50:12.739Z,96.31
2022-08-24T03:51:16.777Z,96.45
2022-08-24T03:52:18.752Z,96.15
2022-08-24T03:53:23.012Z,96.41
2022-08-24T03:54:25.574Z,96.31
2022-08-24T03:55:27.726Z,96.35
2022-08-24T03:56:29.685Z,96.65
2022-08-24T03:57:31.627Z,96.78
2022-08-24T03:58:33.400Z,96.83
2022-08-24T03:59:39.387Z,97.07
2022-08-24T04:00:48.609Z,96.93
2022-08-24T04:01:50.824Z,96.87
2022-08-24T04:02:52.595Z,97.13
2022-08-24T04:03:55.413Z,97.08
2022-08-24T04:04:57.289Z,96.99
2022-08-24T04:05:59.032Z,97.21
2022-08-24T04:07:02.692Z,96.94
2022-08-24T04:08:06.878Z,96.96
2022-08-24T04:09:08.704Z,97.27
2022-08-24T04:10:12.562Z,96.90
2022-08-24T04:11:15.878Z,96.94
2022-08-24T04:12:17.837Z,97.19
2022-08-24T04:13:19.894Z,97.26
2022-08-24T04:14:26.818Z,97.10
2022-08-24T04:15:30.303Z,97.13
2022-08-24T04:16:34.154Z,97.00
2022-08-24T04:17:35.939Z,96.92
2022-08-24T04:18:37.737Z,97.23
2022-08-24T04:19:57.941Z,97.17
2022-08-24T04:20:59.926Z,97.41
2022-08-24T04:22:01.788Z,97.45
2022-08-24T04:23:03.663Z,97.67
2022-08-24T04:24:06.677Z,97.49
2022-08-24T04:25:09.826Z,97.66
2022-08-24T04:26:12.418Z,97.61
2022-08-24T04:27:14.222Z,97.32
2022-08-24T04:28:18.586Z,97.43
2022-08-24T04:29:21.106Z,97.29
2022-08-24T04:30:23.301Z,97.03
2022-08-24T04:31:25.522Z,97.07
2022-08-24T04:32:31.909Z,96.92
2022-08-24T04:33:33.732Z,96.57
2022-08-24T04:34:36.250Z,96.66
2022-08-24T04:35:42.908Z,96.93
2022-08-24T04:36:45.396Z,96.65
2022-08-24T04:37:47.499Z,96.74
2022-08-24T04:38:50.109Z,96.65
2022-08-24T04:39:53.475Z,96.77
2022-08-24T04:40:55.793Z,96.58
2022-08-24T04:42:03.741Z,96.33
2022-08-24T04:43:06.281Z,96.36
2022-08-24T04:44:09.168Z,96.32
2022-08-24T04:45:11.084Z,96.35
2022-08-24T04:46:17.235Z,96.17
2022-08-24T04:47:19.060Z,96.43
2022-08-24T04:48:20.941Z,96.66
2022-08-24T04:49:22.778Z,96.26
2022-08-24T04:50:25.245Z,96.56
2022-08-24T04:51:27.347Z,96.53
2022-08-24T04:52:32.350Z,96.44
2022-08-24T04:53:34.580Z,96.54
2022-08-24T04:54:36.774Z,96.40
2022-08-24T04:55:44.162Z,96.34
2022-08-24T04:56:45.924Z,96.29
2022-08-24T04:57:47.733Z,96.19
2022-08-24T04:58:51.127Z,96.37
2022-08-24T04:59:56.310Z,96.29
2022-08-24T05:00:58.197Z,96.37
2022-08-24T05:02:00.802Z,96.31
2022-08-24T05:03:03.409Z,96.20
2022-08-24T05:04:05.511Z,96.28
2022-08-24T05:05:10.543Z,96.25
2022-08-24T05:06:13.598Z,96.29
2022-08-24T05:07:15.558Z,96.28
2022-08-24T05:08:18.667Z,96.23
2022-08-24T05:09:20.531Z,96.05
2022-08-24T05:10:23.031Z,96.03
2022-08-24T05:11:26.762Z,95.96
2022-08-24T05:12:28.687Z,95.70
2022-08-24T05:13:30.459Z,95.83
2022-08-24T05:14:32.228Z,95.68
2022-08-24T05:15:34.710Z,96.13
2022-08-24T05:16:37.948Z,96.20
2022-08-24T05:17:42.369Z,96.46
2022-08-24T05:18:48.990Z,96.62
2022-08-24T05:19:51.094Z,96.86
2022-08-24T05:20:52.992Z,96.95
2022-08-24T05:21:55.081Z,96.96
2022-08-24T05:22:59.972Z,97.31
2022-08-24T05:24:04.510Z,97.44
2022-08-24T05:25:06.417Z,97.48
2022-08-24T05:26:13.003Z,97.58
2022-08-24T05:27:15.155Z,97.30
2022-08-24T05:28:17.089Z,97.45
2022-08-24T05:29:19.397Z,97.40
2022-08-24T05:30:21.215Z,96.82
2022-08-24T05:31:24.670Z,97.05
2022-08-24T05:32:26.649Z,97.00
2022-08-24T05:33:28.522Z,97.17
2022-08-24T05:34:30.492Z,96.95
2022-08-24T05:35:36.904Z,96.75
2022-08-24T05:36:41.184Z,96.70
2022-08-24T05:37:43.469Z,96.81
2022-08-24T05:38:45.386Z,96.86
2022-08-24T05:39:47.270Z,96.75
2022-08-24T05:40:49.179Z,96.73
2022-08-24T05:41:51.025Z,96.72
2022-08-24T05:42:52.924Z,96.72
2022-08-24T05:43:55.325Z,96.91
2022-08-24T05:44:57.196Z,96.68
2022-08-24T05:45:59.063Z,96.71
2022-08-24T05:47:01.704Z,96.84
2022-08-24T05:48:04.235Z,96.88
2022-08-24T05:49:06.145Z,96.87
2022-08-24T05:50:08.348Z,97.19
2022-08-24T05:51:11.076Z,97.20
2022-08-24T05:52:12.947Z,97.25
2022-08-24T05:53:14.709Z,97.34
2022-08-24T05:54:16.618Z,97.41
2022-08-24T05:55:18.559Z,97.45
2022-08-24T05:56:20.948Z,97.66
2022-08-24T05:57:23.749Z,97.66
2022-08-24T05:58:30.769Z,97.47
2022-08-24T05:59:33.301Z,97.41
2022-08-24T06:00:35.092Z,97.46
2022-08-24T06:01:40.326Z,97.47
2022-08-24T06:02:45.261Z,97.31
2022-08-24T06:03:47.775Z,97.37
2022-08-24T06:04:49.782Z,97.20
2022-08-24T06:05:53.299Z,97.10
2022-08-24T06:06:55.120Z,97.12
2022-08-24T06:07:56.962Z,97.08
2022-08-24T06:08:59.605Z,96.98
2022-08-24T06:10:20.186Z,97.73
2022-08-24T06:11:29.767Z,97.64
2022-08-24T06:12:33.576Z,97.30
2022-08-24T06:13:35.504Z,97.54
2022-08-24T06:14:37.384Z,97.65
2022-08-24T06:15:39.596Z,97.45
2022-08-24T06:16:43.713Z,97.31
2022-08-24T06:17:45.535Z,97.65
2022-08-24T06:18:48.327Z,97.49
2022-08-24T06:19:50.223Z,97.57
2022-08-24T06:20:52.776Z,97.16
2022-08-24T06:21:59.610Z,97.76
2022-08-24T06:23:01.413Z,97.32
2022-08-24T06:24:03.352Z,97.43
2022-08-24T06:25:24.085Z,97.61
2022-08-24T06:26:45.152Z,97.46
2022-08-24T06:27:52.943Z,97.61
2022-08-24T06:28:54.803Z,97.42
2022-08-24T06:30:01.499Z,97.71
2022-08-24T06:31:04.803Z,97.53
2022-08-24T06:32:06.755Z,97.53
2022-08-24T06:33:09.429Z,97.88
2022-08-24T06:34:12.095Z,97.54
2022-08-24T06:35:13.875Z,97.40
2022-08-24T06:36:15.718Z,97.53
2022-08-24T06:37:29.165Z,97.24
2022-08-24T06:38:31.396Z,96.99
2022-08-24T06:39:33.217Z,97.28
2022-08-24T06:40:35.024Z,97.23
2022-08-24T06:41:37.789Z,97.23
2022-08-24T06:42:39.645Z,97.08
2022-08-24T06:43:41.428Z,97.00
2022-08-24T06:44:43.355Z,96.99
2022-08-24T06:45:45.240Z,96.74
2022-08-24T06:46:47.200Z,96.70
2022-08-24T06:47:49.121Z,96.01
2022-08-24T06:48:51.589Z,96.21
2022-08-24T06:49:53.476Z,96.48
2022-08-24T06:50:55.349Z,96.45
2022-08-24T06:51:57.344Z,96.18
2022-08-24T06:53:00.875Z,96.18
2022-08-24T06:54:02.748Z,96.30
2022-08-24T06:55:04.871Z,96.09
2022-08-24T06:56:08.039Z,95.93
2022-08-24T06:57:09.837Z,95.73
2022-08-24T06:58:11.648Z,95.85
2022-08-24T06:59:13.505Z,96.02
2022-08-24T07:00:15.864Z,95.94
2022-08-24T07:01:19.402Z,96.04
2022-08-24T07:02:21.716Z,96.26
2022-08-24T07:03:24.247Z,96.13
2022-08-24T07:04:28.251Z,96.18
2022-08-24T07:05:30.385Z,96.20
2022-08-24T07:06:32.241Z,96.18
2022-08-24T07:07:34.205Z,95.78
2022-08-24T07:08:36.632Z,96.23
2022-08-24T07:09:38.461Z,95.99
2022-08-24T07:10:40.615Z,95.97
2022-08-24T07:11:42.654Z,96.21
2022-08-24T07:12:45.082Z,96.26
2022-08-24T07:13:49.655Z,95.88
2022-08-24T07:14:51.457Z,95.49
2022-08-24T07:15:53.966Z,95.59
2022-08-24T07:16:56.723Z,95.99
2022-08-24T07:17:58.573Z,95.71
2022-08-24T07:19:01.653Z,95.88
2022-08-24T07:20:03.829Z,95.82
2022-08-24T07:21:06.001Z,95.70
2022-08-24T07:22:07.828Z,95.64
2022-08-24T07:23:11.534Z,95.78
2022-08-24T07:24:13.311Z,95.31
2022-08-24T07:25:15.176Z,95.15
2022-08-24T07:26:22.057Z,95.09
2022-08-24T07:27:24.160Z,95.00
2022-08-24T07:28:31.623Z,95.05
2022-08-24T07:29:50.468Z,93.93
2022-08-24T07:30:55.797Z,94.36
2022-08-24T07:31:57.683Z,94.10
2022-08-24T07:32:59.601Z,94.08
2022-08-24T07:34:01.467Z,94.36
2022-08-24T07:35:03.484Z,94.74
2022-08-24T07:36:05.476Z,94.65
2022-08-24T07:37:08.173Z,94.67
2022-08-24T07:38:12.357Z,94.64
2022-08-24T07:39:14.404Z,94.70
2022-08-24T07:40:16.667Z,94.59
2022-08-24T07:41:43.448Z,94.38
2022-08-24T07:42:40.983Z,94.14
2022-08-24T07:43:43.125Z,94.27
2022-08-24T07:44:45.112Z,93.94
2022-08-24T07:45:47.964Z,93.09
2022-08-24T07:46:49.967Z,93.14
2022-08-24T07:47:55.435Z,93.29
2022-08-24T07:49:11.531Z,93.35
2022-08-24T07:50:14.873Z,93.33
2022-08-24T07:51:18.581Z,93.79
2022-08-24T07:52:20.822Z,93.70
2022-08-24T07:53:27.933Z,93.32
2022-08-24T07:54:34.303Z,93.07
2022-08-24T07:55:36.340Z,92.91
2022-08-24T07:56:49.084Z,92.26
2022-08-24T07:57:51.027Z,92.33
2022-08-24T07:58:54.397Z,92.25
2022-08-24T07:59:58.605Z,92.53
2022-08-24T08:01:00.547Z,92.40
2022-08-24T08:02:03.569Z,92.34
2022-08-24T08:03:05.755Z,92.70
2022-08-24T08:04:08.344Z,92.69
2022-08-24T08:05:10.223Z,92.73
2022-08-24T08:06:16.065Z,92.51
2022-08-24T08:07:18.411Z,92.20
2022-08-24T08:08:20.552Z,92.18
2022-08-24T08:09:22.356Z,92.19
2022-08-24T08:10:24.202Z,92.37
2022-08-24T08:11:26.067Z,92.50
2022-08-24T08:12:27.996Z,92.47
2022-08-24T08:13:30.940Z,92.00
2022-08-24T08:14:32.924Z,91.74
2022-08-24T08:15:35.223Z,92.21
2022-08-24T08:16:39.494Z,92.25
2022-08-24T08:17:41.400Z,91.85
2022-08-24T08:18:43.633Z,91.47
2022-08-24T08:19:45.474Z,91.33
2022-08-24T08:20:47.794Z,91.43
2022-08-24T08:22:09.431Z,91.63
2022-08-24T08:23:29.555Z,92.04
2022-08-24T08:24:31.325Z,92.31
2022-08-24T08:25:33.141Z,91.78
2022-08-24T08:26:34.960Z,92.04
2022-08-24T08:27:37.011Z,91.88
2022-08-24T08:28:39.170Z,91.66
2022-08-24T08:29:41.338Z,91.90
2022-08-24T08:30:44.656Z,91.29
2022-08-24T08:31:46.736Z,91.43
2022-08-24T08:32:48.887Z,91.36
2022-08-24T08:33:50.669Z,91.68
2022-08-24T08:34:52.544Z,93.14
2022-08-24T08:36:02.066Z,92.91
2022-08-24T08:37:04.186Z,92.53
2022-08-24T08:38:06.673Z,92.32
2022-08-24T08:39:10.454Z,92.05
2022-08-24T08:40:19.062Z,92.22
2022-08-24T08:41:32.885Z,90.96
2022-08-24T08:42:48.915Z,91.15
2022-08-24T08:44:01.319Z,90.60
2022-08-24T08:45:03.388Z,90.32
2022-08-24T08:46:08.274Z,91.28
2022-08-24T08:47:30.757Z,92.60
2022-08-24T08:48:32.604Z,91.72
2022-08-24T08:49:52.760Z,92.19
2022-08-24T08:51:17.858Z,91.66
2022-08-24T08:52:27.505Z,91.82
2022-08-24T08:53:30.500Z,91.64
2022-08-24T08:54:39.260Z,91.38
2022-08-24T08:55:45.613Z,91.39
2022-08-24T08:57:17.447Z,91.50
2022-08-24T08:58:28.879Z,91.22
2022-08-24T08:59:40.686Z,90.46
2022-08-24T09:00:54.657Z,90.58
2022-08-24T09:02:08.246Z,90.01
2022-08-24T09:03:21.941Z,89.98
2022-08-24T09:04:41.330Z,89.06
2022-08-24T09:05:47.846Z,88.94
2022-08-24T09:07:08.840Z,89.83
2022-08-24T09:08:40.179Z,89.79
2022-08-24T09:09:42.053Z,90.23
2022-08-24T09:11:02.195Z,90.12
2022-08-24T09:12:14.053Z,89.42
2022-08-24T09:13:15.767Z,87.51
2022-08-24T09:14:35.744Z,86.52
2022-08-24T09:15:43.563Z,83.83
2022-08-24T09:17:03.649Z,83.94
2022-08-24T09:18:08.601Z,85.23
2022-08-24T09:19:10.484Z,85.88
2022-08-24T09:20:30.913Z,86.28
2022-08-24T09:21:41.666Z,86.54
2022-08-24T09:22:44.786Z,86.69
2022-08-24T09:23:54.317Z,83.75
2022-08-24T09:24:56.169Z,83.63
2022-08-24T09:26:03.905Z,83.59
2022-08-24T09:27:15.791Z,83.70
2022-08-24T09:28:27.306Z,83.16
2022-08-24T09:29:49.684Z,83.26
2022-08-24T09:31:05.465Z,84.55
2022-08-24T09:32:26.115Z,84.52
2022-08-24T09:33:35.944Z,85.31
2022-08-24T09:34:46.379Z,84.26
2022-08-24T09:35:51.293Z,84.54
2022-08-24T09:37:17.602Z,84.55
2022-08-24T09:38:38.536Z,84.07
2022-08-24T09:39:59.772Z,81.35
2022-08-24T09:41:05.817Z,82.16
2022-08-24T09:42:07.669Z,82.12
2022-08-24T09:43:15.266Z,81.24
2022-08-24T09:44:23.198Z,82.69
2022-08-24T09:45:28.127Z,82.54
2022-08-24T09:46:52.883Z,83.05
2022-08-24T09:47:54.719Z,81.56
2022-08-24T09:48:56.472Z,80.03
2022-08-24T09:50:21.573Z,81.00
2022-08-24T09:51:39.756Z,75.28
2022-08-24T09:53:00.286Z,73.80
2022-08-24T09:54:14.385Z,75.52
2022-08-24T09:55:40.577Z,77.52
2022-08-24T09:57:11.630Z,77.10
2022-08-24T09:58:32.947Z,77.29
2022-08-24T09:59:48.032Z,77.89
2022-08-24T10:01:02.576Z,74.80
2022-08-24T10:02:05.059Z,74.79
2022-08-24T10:03:09.908Z,75.31
2022-08-24T10:04:11.912Z,76.58
2022-08-24T10:05:27.711Z,77.25
2022-08-24T10:06:43.716Z,76.67
2022-08-24T10:07:45.530Z,76.62
2022-08-24T10:09:05.797Z,77.39
2022-08-24T10:10:21.238Z,76.76
2022-08-24T10:11:26.437Z,76.46
2022-08-24T10:12:40.447Z,75.52
2022-08-24T10:13:48.307Z,74.86
2022-08-24T10:14:53.237Z,75.78
2022-08-24T10:16:01.275Z,73.34
2022-08-24T10:17:10.192Z,73.79
2022-08-24T10:18:13.414Z,74.26
2022-08-24T10:19:18.836Z,74.00
2022-08-24T10:20:26.546Z,73.76
2022-08-24T10:21:34.464Z,72.22
2022-08-24T10:22:51.506Z,72.70
2022-08-24T10:24:21.820Z,73.56
2022-08-24T10:25:23.588Z,73.94
2022-08-24T10:26:52.878Z,72.03
2022-08-24T10:28:13.420Z,72.77
2022-08-24T10:29:24.382Z,71.99
2022-08-24T10:30:41.325Z,68.89
2022-08-24T10:31:59.910Z,71.37
2022-08-24T10:33:04.589Z,72.36
2022-08-24T10:34:06.429Z,71.93
2022-08-24T10:35:08.222Z,72.80
2022-08-24T10:36:13.003Z,73.03
2022-08-24T10:37:33.714Z,72.61
2022-08-24T10:39:02.522Z,73.25
2022-08-24T10:40:09.438Z,70.00
2022-08-24T10:41:30.616Z,70.57
2022-08-24T10:43:02.520Z,72.13
2022-08-24T10:44:13.345Z,71.50
2022-08-24T10:45:18.232Z,71.46
2022-08-24T10:46:26.131Z,72.55
2022-08-24T10:47:35.320Z,71.38
2022-08-24T10:48:51.054Z,72.26
2022-08-24T10:50:13.837Z,71.70
2022-08-24T10:51:35.050Z,70.20
2022-08-24T10:52:42.752Z,69.99
2022-08-24T10:53:48.643Z,69.19
2022-08-24T10:54:51.277Z,68.67
2022-08-24T10:56:11.590Z,68.48
2022-08-24T10:57:25.695Z,68.37
2022-08-24T10:58:56.961Z,67.81
2022-08-24T11:00:22.817Z,68.50
2022-08-24T11:01:28.201Z,68.11
2022-08-24T11:02:32.199Z,69.57
2022-08-24T11:03:47.873Z,69.49
2022-08-24T11:04:55.955Z,68.11
2022-08-24T11:05:57.941Z,68.35
2022-08-24T11:07:09.732Z,69.55
2022-08-24T11:08:17.908Z,68.73
2022-08-24T11:09:20.120Z,69.05
2022-08-24T11:10:36.106Z,65.89
2022-08-24T11:11:40.900Z,68.86
2022-08-24T11:12:44.059Z,70.30
2022-08-24T11:14:00.637Z,70.48
2022-08-24T11:15:11.281Z,67.24
2022-08-24T11:16:22.901Z,66.31
2022-08-24T11:17:25.788Z,68.11
2022-08-24T11:18:46.775Z,69.41
2022-08-24T11:19:49.637Z,69.95
2022-08-24T11:20:53.738Z,69.86
2022-08-24T11:21:57.645Z,70.31
2022-08-24T11:23:02.889Z,69.17
2022-08-24T11:24:27.718Z,69.76
2022-08-24T11:25:32.397Z,70.30
2022-08-24T11:26:45.805Z,69.81
2022-08-24T11:27:49.625Z,69.04
2022-08-24T11:28:54.293Z,69.52
2022-08-24T11:29:57.720Z,70.98
2022-08-24T11:31:00.359Z,70.07
2022-08-24T11:32:02.232Z,70.80
2022-08-24T11:33:05.422Z,69.34
2022-08-24T11:34:09.052Z,68.99
2022-08-24T11:35:24.610Z,70.12
2022-08-24T11:36:29.509Z,68.72
2022-08-24T11:37:32.962Z,69.08
2022-08-24T11:38:35.247Z,68.60
2022-08-24T11:39:37.769Z,68.94
2022-08-24T11:40:42.143Z,68.02
2022-08-24T11:41:46.974Z,69.73
2022-08-24T11:42:48.815Z,69.42
2022-08-24T11:43:53.550Z,70.49
2022-08-24T11:44:59.511Z,69.63
2022-08-24T11:46:07.553Z,69.55
2022-08-24T11:47:12.623Z,69.16
2022-08-24T11:48:26.875Z,69.37
2022-08-24T11:50:00.981Z,69.04
2022-08-24T11:51:11.198Z,69.18
2022-08-24T11:52:28.007Z,69.43
2022-08-24T11:54:43.844Z,68.89
2022-08-24T11:55:57.213Z,69.15
2022-08-24T11:57:10.506Z,69.22
2022-08-24T11:58:31.769Z,67.00
2022-08-24T11:59:36.813Z,67.65
2022-08-24T12:00:48.368Z,69.20
2022-08-24T12:01:53.975Z,68.17
2022-08-24T12:03:14.469Z,69.35
2022-08-24T12:04:26.324Z,69.95
2022-08-24T12:05:37.551Z,68.39
2022-08-24T12:06:57.590Z,68.40
2022-08-24T12:08:18.089Z,69.46
2022-08-24T12:09:25.705Z,69.18
2022-08-24T12:10:46.215Z,69.87
2022-08-24T12:11:56.895Z,69.18
2022-08-24T12:13:06.140Z,69.57
2022-08-24T12:14:22.757Z,66.71
2022-08-24T12:15:36.310Z,68.88
2022-08-24T12:16:40.889Z,68.19
2022-08-24T12:17:56.505Z,68.12
2022-08-24T12:19:04.455Z,69.09
2022-08-24T12:20:22.805Z,68.83
2022-08-24T12:21:26.111Z,67.67
2022-08-24T12:22:29.099Z,67.46
2022-08-24T12:23:38.299Z,68.60
2022-08-24T12:24:43.312Z,68.90
2022-08-24T12:26:02.130Z,67.85
2022-08-24T12:27:24.143Z,66.47
2022-08-24T12:28:28.215Z,66.66
2022-08-24T12:29:30.016Z,67.18
2022-08-24T12:30:32.076Z,66.79
2022-08-24T12:31:40.280Z,66.20
2022-08-24T12:32:44.025Z,65.27
2022-08-24T12:33:51.660Z,65.78
2022-08-24T12:34:59.120Z,65.43
2022-08-24T12:36:03.370Z,65.48
2022-08-24T12:37:28.857Z,64.75
2022-08-24T12:38:43.521Z,63.48
2022-08-24T12:39:48.763Z,62.86
2022-08-24T12:40:57.074Z,63.29
2022-08-24T12:42:06.375Z,62.68
2022-08-24T12:43:12.429Z,61.74
2022-08-24T12:44:16.430Z,62.64
2022-08-24T12:45:19.370Z,61.14
2022-08-24T12:46:23.012Z,62.27
2022-08-24T12:47:37.200Z,62.33
2022-08-24T12:48:46.670Z,61.28
2022-08-24T12:49:54.745Z,60.19
2022-08-24T12:51:15.426Z,63.08
2022-08-24T12:52:29.043Z,59.80
2022-08-24T12:53:49.711Z,61.42
2022-08-24T12:55:02.525Z,59.33
2022-08-24T12:56:13.723Z,60.57
2022-08-24T12:57:25.342Z,61.11
2022-08-24T12:58:53.861Z,61.01
2022-08-24T12:59:57.918Z,61.48
2022-08-24T13:01:06.055Z,61.81
2022-08-24T13:02:11.500Z,60.66
2022-08-24T13:03:31.201Z,59.02
2022-08-24T13:05:05.360Z,60.66
2022-08-24T13:06:11.886Z,60.64
2022-08-24T13:07:19.985Z,59.46
2022-08-24T13:08:32.283Z,62.21
2022-08-24T13:09:36.703Z,62.80
2022-08-24T13:10:43.876Z,59.01
2022-08-24T13:11:45.725Z,60.31
2022-08-24T13:12:53.899Z,59.98
2022-08-24T13:13:55.680Z,60.14
2022-08-24T13:15:16.096Z,61.47
2022-08-24T13:16:36.460Z,58.28
2022-08-24T13:17:41.767Z,60.41
2022-08-24T13:18:51.817Z,58.48
2022-08-24T13:20:13.609Z,60.90
2022-08-24T13:21:17.018Z,57.25
2022-08-24T13:22:39.253Z,57.23
2022-08-24T13:23:41.029Z,57.84
2022-08-24T13:24:42.991Z,58.08
2022-08-24T13:25:47.727Z,59.06
2022-08-24T13:26:49.555Z,57.24
2022-08-24T13:28:01.815Z,58.57
2022-08-24T13:29:03.804Z,57.63
2022-08-24T13:30:07.906Z,59.79
2022-08-24T13:31:09.693Z,57.03
2022-08-24T13:32:31.905Z,56.57
2022-08-24T13:33:36.538Z,58.37
2022-08-24T13:34:41.786Z,58.25
2022-08-24T13:35:54.055Z,56.64
2022-08-24T13:37:10.765Z,54.66
2022-08-24T13:38:26.554Z,54.96
2022-08-24T13:39:54.599Z,55.35
2022-08-24T13:41:03.134Z,57.50
2022-08-24T13:42:07.462Z,56.15
2022-08-24T13:43:32.603Z,55.29
2022-08-24T13:44:49.583Z,58.29
2022-08-24T13:46:13.121Z,57.95
2022-08-24T13:47:19.158Z,56.13
2022-08-24T13:48:33.653Z,57.38
2022-08-24T13:49:46.247Z,54.83
2022-08-24T13:50:48.594Z,57.13
2022-08-24T13:52:09.055Z,55.84
2022-08-24T13:53:30.082Z,54.86
2022-08-24T13:54:44.390Z,54.69
2022-08-24T13:55:53.217Z,55.62
2022-08-24T13:57:02.373Z,51.28
2022-08-24T13:58:16.619Z,54.74
2022-08-24T13:59:33.707Z,53.65
2022-08-24T14:00:44.726Z,56.79
2022-08-24T14:01:52.660Z,54.27
2022-08-24T14:03:06.753Z,54.53
2022-08-24T14:04:08.552Z,56.00
2022-08-24T14:05:24.273Z,53.33
2022-08-24T14:06:29.217Z,55.33
2022-08-24T14:07:34.637Z,55.56
2022-08-24T14:08:55.518Z,55.25
2022-08-24T14:10:23.648Z,55.07
2022-08-24T14:11:25.426Z,55.04
2022-08-24T14:12:33.604Z,53.89
2022-08-24T14:14:13.749Z,54.28
2022-08-24T14:15:34.511Z,56.20
2022-08-24T14:17:00.675Z,55.19